createdAt,value
2017-06-09T00:00:31.783Z,72.45
2017-06-09T00:03:04.167Z,72.40
2017-06-09T00:05:36.564Z,72.67
2017-06-09T00:08:08.940Z,72.47
2017-06-09T00:10:41.322Z,72.61
2017-06-09T00:13:13.713Z,71.98
2017-06-09T00:15:46.247Z,72.39
2017-06-09T00:18:18.736Z,72.34
2017-06-09T00:20:51.121Z,72.01
2017-06-09T00:23:23.717Z,72.37
2017-06-09T00:25:56.084Z,72.13
2017-06-09T00:28:28.456Z,72.33
2017-06-09T00:31:01.196Z,71.88
2017-06-09T00:33:33.313Z,71.85
2017-06-09T00:36:05.603Z,72.21
2017-06-09T00:38:37.997Z,72.42
2017-06-09T00:41:10.488Z,72.69
2017-06-09T00:43:42.580Z,72.75
2017-06-09T00:46:14.943Z,72.99
2017-06-09T00:48:47.250Z,73.17
2017-06-09T00:51:19.880Z,73.35
2017-06-09T00:53:52.094Z,73.77
2017-06-09T00:56:24.467Z,73.98
2017-06-09T00:58:57.247Z,74.17
2017-06-09T01:01:29.235Z,74.12
2017-06-09T01:04:01.716Z,74.25
2017-06-09T01:06:34.325Z,74.26
2017-06-09T01:09:07.361Z,74.32
2017-06-09T01:11:39.763Z,74.54
2017-06-09T01:14:12.226Z,74.47
2017-06-09T01:16:44.599Z,74.63
2017-06-09T01:19:17.012Z,74.36
2017-06-09T01:21:49.492Z,74.62
2017-06-09T01:24:21.811Z,74.80
2017-06-09T01:26:54.133Z,74.43
2017-06-09T01:29:26.623Z,74.63
2017-06-09T01:31:58.947Z,74.44
2017-06-09T01:34:31.599Z,74.01
2017-06-09T01:37:03.936Z,73.88
2017-06-09T01:39:36.339Z,73.64
2017-06-09T01:42:08.887Z,73.38
2017-06-09T01:44:41.479Z,73.19
2017-06-09T01:47:13.652Z,72.71
2017-06-09T01:49:46.152Z,72.62
2017-06-09T01:52:18.540Z,72.49
2017-06-09T01:54:50.995Z,72.20
2017-06-09T01:57:23.279Z,72.07
2017-06-09T02:00:03.707Z,72.25
2017-06-09T02:02:36.046Z,72.30
2017-06-09T02:05:08.592Z,72.41
2017-06-09T02:07:40.873Z,72.82
2017-06-09T02:10:13.261Z,73.01
2017-06-09T02:12:45.752Z,72.56
2017-06-09T02:15:18.066Z,72.96
2017-06-09T02:17:50.434Z,73.03
2017-06-09T02:20:22.824Z,73.29
2017-06-09T02:22:55.463Z,73.73
2017-06-09T02:25:27.616Z,73.49
2017-06-09T02:27:59.954Z,73.42
2017-06-09T02:30:32.268Z,73.25
2017-06-09T02:33:04.570Z,73.97
2017-06-09T02:35:36.903Z,74.17
2017-06-09T02:38:10.332Z,74.28
2017-06-09T02:40:42.933Z,73.98
2017-06-09T02:43:15.275Z,73.82
2017-06-09T02:45:47.707Z,73.75
2017-06-09T02:48:20.030Z,74.14
2017-06-09T02:50:52.548Z,74.12
2017-06-09T02:53:24.887Z,73.94
2017-06-09T02:55:57.265Z,74.39
2017-06-09T02:58:29.583Z,74.61
2017-06-09T03:01:02.040Z,74.91
2017-06-09T03:03:34.556Z,74.84
2017-06-09T03:06:06.963Z,75.79
2017-06-09T03:08:39.427Z,76.19
2017-06-09T03:11:11.831Z,76.04
2017-06-09T03:13:44.176Z,76.41
2017-06-09T03:16:16.667Z,76.89
2017-06-09T03:18:49.056Z,76.74
2017-06-09T03:21:21.433Z,76.87
2017-06-09T03:23:53.784Z,76.82
2017-06-09T03:26:26.238Z,76.46
2017-06-09T03:28:58.580Z,76.75
2017-06-09T03:31:37.232Z,76.61
2017-06-09T03:34:09.311Z,76.42
2017-06-09T03:36:41.755Z,76.44
2017-06-09T03:39:14.121Z,76.36
2017-06-09T03:41:53.620Z,76.06
2017-06-09T03:44:26.905Z,75.87
2017-06-09T03:46:59.502Z,75.80
2017-06-09T03:49:31.889Z,75.17
2017-06-09T03:52:04.369Z,74.90
2017-06-09T03:54:36.900Z,74.77
2017-06-09T03:57:09.307Z,74.32
2017-06-09T03:59:41.751Z,74.05
2017-06-09T04:02:14.249Z,73.77
2017-06-09T04:04:46.637Z,73.59
2017-06-09T04:07:18.984Z,73.14
2017-06-09T04:09:51.462Z,72.52
2017-06-09T04:12:23.980Z,72.33
2017-06-09T04:14:56.308Z,72.12
2017-06-09T04:17:28.805Z,72.40
2017-06-09T04:20:01.178Z,72.76
2017-06-09T04:22:34.568Z,73.08
2017-06-09T04:25:07.104Z,73.25
2017-06-09T04:27:39.362Z,73.66
2017-06-09T04:30:11.627Z,74.31
2017-06-09T04:32:44.128Z,73.95
2017-06-09T04:35:16.537Z,74.25
2017-06-09T04:37:48.826Z,74.55
2017-06-09T04:40:21.151Z,74.59
2017-06-09T04:42:53.644Z,74.32
2017-06-09T04:45:26.134Z,73.79
2017-06-09T04:47:58.521Z,72.32
2017-06-09T04:50:30.771Z,69.35
2017-06-09T04:53:10.243Z,66.61
2017-06-09T04:55:42.873Z,63.04
2017-06-09T04:58:15.292Z,61.59
2017-06-09T05:00:47.911Z,59.26
2017-06-09T05:03:20.010Z,55.92
2017-06-09T05:05:52.355Z,53.89
2017-06-09T05:08:24.854Z,53.33
2017-06-09T05:10:57.220Z,54.15
2017-06-09T05:13:29.631Z,51.43
2017-06-09T05:16:02.105Z,51.24
2017-06-09T05:18:34.488Z,51.75
2017-06-09T05:21:09.895Z,50.78
2017-06-09T05:23:48.509Z,49.91
2017-06-09T05:26:21.011Z,47.39
2017-06-09T05:28:53.505Z,46.30
2017-06-09T05:31:25.958Z,46.57
2017-06-09T05:33:57.788Z,47.61
2017-06-09T05:36:30.292Z,46.45
2017-06-09T05:39:02.710Z,45.62
2017-06-09T05:41:34.991Z,43.65
2017-06-09T05:44:07.483Z,43.08
2017-06-09T05:46:39.879Z,46.09
2017-06-09T05:49:12.548Z,48.28
2017-06-09T05:51:44.691Z,49.85
2017-06-09T05:54:17.220Z,49.44
2017-06-09T05:56:49.616Z,49.65
2017-06-09T05:59:22.136Z,51.93
2017-06-09T06:01:54.547Z,52.79
2017-06-09T06:04:26.927Z,53.61
2017-06-09T06:06:59.323Z,54.58
2017-06-09T06:09:32.015Z,54.90
2017-06-09T06:12:04.085Z,54.18
2017-06-09T06:14:36.600Z,51.27
2017-06-09T06:17:08.942Z,48.02
2017-06-09T06:19:41.436Z,45.69
2017-06-09T06:22:13.851Z,45.15
2017-06-09T06:24:46.247Z,44.79
2017-06-09T06:27:18.556Z,45.86
2017-06-09T06:29:50.998Z,47.44
2017-06-09T06:32:23.404Z,48.95
2017-06-09T06:34:55.862Z,49.52
2017-06-09T06:37:28.281Z,50.36
2017-06-09T06:40:00.711Z,51.58
2017-06-09T06:42:33.037Z,51.92
2017-06-09T06:45:05.594Z,51.20
2017-06-09T06:47:37.903Z,50.36
2017-06-09T06:50:10.271Z,50.55
2017-06-09T06:52:42.749Z,48.78
2017-06-09T06:55:15.183Z,47.46
2017-06-09T06:57:47.631Z,48.46
2017-06-09T07:00:20.154Z,48.25
2017-06-09T07:02:52.507Z,49.09
2017-06-09T07:05:24.979Z,49.71
2017-06-09T07:07:57.423Z,50.34
2017-06-09T07:10:29.838Z,48.57
2017-06-09T07:13:02.272Z,44.08
2017-06-09T07:15:34.659Z,44.49
2017-06-09T07:18:07.158Z,45.25
2017-06-09T07:20:40.528Z,46.63
2017-06-09T07:23:12.975Z,48.65
2017-06-09T07:25:45.520Z,50.20
2017-06-09T07:28:17.847Z,51.38
2017-06-09T07:30:50.351Z,51.09
2017-06-09T07:33:22.653Z,49.16
2017-06-09T07:35:55.098Z,44.37
2017-06-09T07:38:27.448Z,42.54
2017-06-09T07:40:59.865Z,40.12
2017-06-09T07:43:32.311Z,39.06
2017-06-09T07:46:04.591Z,38.57
2017-06-09T07:48:37.087Z,36.72
2017-06-09T07:51:09.704Z,34.68
2017-06-09T07:53:41.941Z,36.47
2017-06-09T07:56:14.311Z,36.45
2017-06-09T07:58:46.827Z,37.05
2017-06-09T08:01:19.145Z,38.33
2017-06-09T08:03:51.746Z,40.12
2017-06-09T08:06:23.839Z,41.74
2017-06-09T08:08:56.281Z,42.85
2017-06-09T08:11:28.664Z,44.69
2017-06-09T08:14:01.128Z,45.10
2017-06-09T08:16:33.627Z,46.45
2017-06-09T08:19:05.998Z,46.68
2017-06-09T08:21:38.319Z,46.02
2017-06-09T08:24:10.787Z,46.72
2017-06-09T08:26:43.372Z,45.45
2017-06-09T08:29:15.741Z,45.37
2017-06-09T08:31:48.184Z,44.94
2017-06-09T08:34:20.598Z,44.54
2017-06-09T08:36:53.005Z,44.33
2017-06-09T08:39:25.344Z,43.42
2017-06-09T08:41:57.929Z,42.38
2017-06-09T08:44:30.319Z,42.99
2017-06-09T08:47:02.768Z,42.96
2017-06-09T08:49:35.071Z,43.43
2017-06-09T08:52:07.555Z,42.93
2017-06-09T08:54:39.877Z,43.74
2017-06-09T08:57:12.391Z,43.38
2017-06-09T08:59:44.711Z,43.70
2017-06-09T09:02:17.408Z,43.79
2017-06-09T09:04:49.367Z,43.68
2017-06-09T09:07:21.843Z,44.27
2017-06-09T09:09:54.298Z,44.84
2017-06-09T09:12:26.863Z,44.56
2017-06-09T09:14:59.208Z,44.97
2017-06-09T09:17:31.544Z,44.34
2017-06-09T09:20:03.912Z,45.70
2017-06-09T09:22:36.334Z,45.22
2017-06-09T09:25:08.699Z,45.71
2017-06-09T09:27:41.056Z,45.81
2017-06-09T09:30:13.472Z,45.31
2017-06-09T09:32:45.852Z,46.13
2017-06-09T09:35:18.244Z,45.96
2017-06-09T09:37:50.759Z,45.83
2017-06-09T09:40:23.236Z,46.04
2017-06-09T09:42:55.637Z,46.56
2017-06-09T09:45:28.003Z,46.55
2017-06-09T09:48:00.851Z,46.58
2017-06-09T09:50:32.839Z,47.39
2017-06-09T09:53:05.223Z,46.56
2017-06-09T09:55:37.563Z,47.15
2017-06-09T09:58:10.016Z,46.38
2017-06-09T10:00:42.349Z,48.11
2017-06-09T10:03:14.720Z,48.32
2017-06-09T10:05:47.176Z,48.78
2017-06-09T10:08:19.642Z,47.52
2017-06-09T10:10:52.082Z,47.36
2017-06-09T10:13:24.591Z,47.10
2017-06-09T10:15:57.083Z,47.88
2017-06-09T10:18:29.515Z,47.16
2017-06-09T10:21:01.828Z,46.67
2017-06-09T10:23:34.194Z,46.28
2017-06-09T10:26:06.563Z,46.59
2017-06-09T10:28:39.054Z,45.48
2017-06-09T10:31:11.395Z,45.60
2017-06-09T10:33:43.863Z,46.57
2017-06-09T10:36:16.101Z,46.87
2017-06-09T10:38:48.567Z,46.92
2017-06-09T10:41:20.887Z,47.50
2017-06-09T10:43:53.443Z,47.49
2017-06-09T10:46:25.738Z,47.28
2017-06-09T10:48:58.167Z,47.53
2017-06-09T10:51:30.552Z,47.87
2017-06-09T10:54:02.988Z,49.27
2017-06-09T10:56:35.431Z,49.90
2017-06-09T10:59:07.946Z,50.71
2017-06-09T11:01:40.384Z,49.85
2017-06-09T11:04:12.797Z,49.07
2017-06-09T11:06:45.150Z,49.20
2017-06-09T11:09:17.466Z,49.86
2017-06-09T11:11:49.868Z,50.40
2017-06-09T11:14:22.357Z,49.35
2017-06-09T11:16:54.707Z,49.11
2017-06-09T11:19:27.195Z,48.09
2017-06-09T11:21:59.663Z,48.10
2017-06-09T11:24:32.152Z,48.39
2017-06-09T11:27:04.404Z,47.35
2017-06-09T11:29:36.875Z,47.77
2017-06-09T11:32:09.339Z,49.30
2017-06-09T11:34:41.856Z,49.98
2017-06-09T11:37:14.272Z,49.56
2017-06-09T11:39:46.587Z,50.44
2017-06-09T11:42:19.007Z,51.35
2017-06-09T11:44:51.504Z,52.59
2017-06-09T11:47:23.875Z,53.61
2017-06-09T11:49:56.264Z,54.84
2017-06-09T11:52:28.606Z,55.60
2017-06-09T11:55:00.951Z,55.38
2017-06-09T11:57:33.311Z,56.35
2017-06-09T12:00:05.762Z,57.96
2017-06-09T12:02:37.998Z,62.35
2017-06-09T12:05:10.431Z,66.42
2017-06-09T12:07:42.878Z,70.37
2017-06-09T12:10:15.256Z,76.05
2017-06-09T12:12:47.615Z,76.92
2017-06-09T12:15:20.008Z,79.35
2017-06-09T12:17:52.643Z,81.34
2017-06-09T12:20:25.042Z,81.37
2017-06-09T12:22:57.421Z,82.98
2017-06-09T12:25:29.820Z,83.92
2017-06-09T12:28:02.107Z,84.20
2017-06-09T12:30:34.836Z,83.46
2017-06-09T12:33:07.095Z,85.13
2017-06-09T12:35:39.565Z,85.44
2017-06-09T12:38:11.799Z,85.33
2017-06-09T12:40:44.230Z,86.41
2017-06-09T12:43:16.587Z,85.93
2017-06-09T12:45:49.399Z,87.31
2017-06-09T12:48:21.463Z,86.94
2017-06-09T12:50:54.653Z,87.18
2017-06-09T12:53:27.027Z,88.66
2017-06-09T12:55:59.303Z,88.25
2017-06-09T12:58:31.611Z,88.14
2017-06-09T13:01:04.928Z,87.39
2017-06-09T13:03:37.280Z,86.86
2017-06-09T13:06:09.603Z,87.55
2017-06-09T13:08:41.974Z,87.12
2017-06-09T13:11:14.485Z,86.91
2017-06-09T13:13:47.012Z,87.20
2017-06-09T13:16:19.410Z,87.19
2017-06-09T13:18:51.746Z,87.24
2017-06-09T13:21:24.067Z,87.47
2017-06-09T13:23:56.491Z,88.34
2017-06-09T13:26:28.978Z,88.56
2017-06-09T13:29:01.432Z,89.09
2017-06-09T13:31:33.815Z,88.25
2017-06-09T13:34:06.083Z,89.00
2017-06-09T13:36:39.490Z,88.47
2017-06-09T13:39:21.786Z,88.36
2017-06-09T13:41:54.270Z,88.01
2017-06-09T13:44:26.543Z,86.18
2017-06-09T13:46:58.935Z,87.85
2017-06-09T13:49:31.368Z,87.08
2017-06-09T13:52:03.680Z,87.66
2017-06-09T13:54:36.132Z,87.74
2017-06-09T13:57:08.523Z,88.32
2017-06-09T13:59:41.015Z,87.39
2017-06-09T14:02:13.372Z,86.16
2017-06-09T14:04:45.767Z,85.91
2017-06-09T14:07:19.158Z,84.58
2017-06-09T14:09:51.578Z,85.46
2017-06-09T14:12:24.083Z,83.92
2017-06-09T14:14:56.444Z,84.41
2017-06-09T14:17:28.982Z,83.38
2017-06-09T14:20:01.399Z,81.57
2017-06-09T14:22:33.902Z,80.63
2017-06-09T14:25:06.302Z,79.08
2017-06-09T14:27:38.774Z,79.27
2017-06-09T14:30:11.239Z,77.96
2017-06-09T14:32:43.667Z,79.40
2017-06-09T14:35:16.166Z,79.12
2017-06-09T14:37:48.806Z,80.93
2017-06-09T14:40:21.094Z,79.14
2017-06-09T14:42:53.739Z,78.90
2017-06-09T14:45:26.171Z,77.67
2017-06-09T14:47:58.591Z,75.99
2017-06-09T14:50:31.002Z,76.28
2017-06-09T14:53:03.460Z,75.21
2017-06-09T14:55:35.775Z,76.33
2017-06-09T14:58:08.228Z,75.38
2017-06-09T15:00:40.520Z,75.13
2017-06-09T15:03:12.939Z,75.89
2017-06-09T15:05:45.324Z,74.54
2017-06-09T15:08:17.739Z,74.51
2017-06-09T15:10:50.079Z,72.81
2017-06-09T15:13:22.523Z,73.79
2017-06-09T15:15:54.931Z,74.10
2017-06-09T15:18:27.195Z,71.29
2017-06-09T15:20:59.609Z,72.20
2017-06-09T15:23:31.991Z,71.60
2017-06-09T15:26:04.280Z,72.00
2017-06-09T15:28:36.694Z,71.62
2017-06-09T15:31:09.096Z,71.51
2017-06-09T15:33:41.580Z,69.97
2017-06-09T15:36:14.122Z,69.77
2017-06-09T15:38:46.410Z,69.38
2017-06-09T15:41:19.314Z,70.14
2017-06-09T15:43:51.343Z,69.88
2017-06-09T15:46:23.711Z,70.23
2017-06-09T15:48:56.557Z,67.35
2017-06-09T15:51:28.430Z,68.13
2017-06-09T15:54:00.919Z,67.95
2017-06-09T15:56:33.298Z,68.25
2017-06-09T15:59:05.667Z,67.98
2017-06-09T16:01:38.063Z,68.59
2017-06-09T16:04:10.505Z,66.92
2017-06-09T16:06:42.895Z,69.22
2017-06-09T16:09:15.296Z,69.72
2017-06-09T16:11:47.619Z,70.87
2017-06-09T16:14:20.995Z,69.83
2017-06-09T16:16:53.359Z,67.63
2017-06-09T16:19:25.771Z,68.95
2017-06-09T16:21:58.223Z,66.35
2017-06-09T16:24:30.654Z,67.46
2017-06-09T16:27:03.047Z,66.14
2017-06-09T16:29:35.484Z,65.88
2017-06-09T16:32:07.863Z,64.74
2017-06-09T16:34:40.548Z,65.06
2017-06-09T16:37:12.932Z,64.78
2017-06-09T16:39:45.467Z,63.88
2017-06-09T16:42:17.787Z,61.94
2017-06-09T16:44:50.256Z,62.40
2017-06-09T16:47:22.660Z,63.13
2017-06-09T16:49:55.055Z,64.43
2017-06-09T16:52:27.508Z,63.66
2017-06-09T16:54:59.924Z,64.33
2017-06-09T16:57:32.460Z,64.95
2017-06-09T17:00:05.139Z,65.08
2017-06-09T17:02:37.567Z,64.65
2017-06-09T17:05:10.070Z,65.20
2017-06-09T17:07:42.531Z,66.41
2017-06-09T17:10:15.012Z,66.85
2017-06-09T17:12:47.305Z,67.37
2017-06-09T17:15:20.784Z,67.83
2017-06-09T17:17:53.144Z,67.22
2017-06-09T17:20:26.562Z,68.02
2017-06-09T17:22:58.875Z,67.79
2017-06-09T17:25:31.316Z,68.00
2017-06-09T17:28:03.755Z,68.03
2017-06-09T17:30:36.176Z,68.65
2017-06-09T17:33:08.559Z,69.10
2017-06-09T17:35:41.091Z,69.36
2017-06-09T17:38:13.436Z,69.85
2017-06-09T17:40:45.867Z,69.62
2017-06-09T17:43:18.238Z,69.96
2017-06-09T17:45:50.754Z,70.21
2017-06-09T17:48:23.503Z,70.23
2017-06-09T17:50:56.164Z,70.41
2017-06-09T17:53:28.790Z,70.58
2017-06-09T17:56:01.134Z,70.53
2017-06-09T17:58:33.535Z,70.64
2017-06-09T18:01:05.914Z,70.47
2017-06-09T18:03:38.127Z,70.45
2017-06-09T18:06:10.581Z,70.03
2017-06-09T18:08:43.471Z,70.32
2017-06-09T18:11:15.412Z,69.29
2017-06-09T18:13:47.771Z,66.72
2017-06-09T18:16:20.258Z,64.58
2017-06-09T18:18:52.579Z,63.11
2017-06-09T18:21:24.847Z,61.51
2017-06-09T18:23:57.165Z,61.63
2017-06-09T18:26:29.652Z,60.96
2017-06-09T18:29:02.060Z,61.76
2017-06-09T18:31:34.599Z,60.72
2017-06-09T18:34:07.378Z,61.33
2017-06-09T18:36:39.500Z,61.24
2017-06-09T18:39:11.884Z,60.70
2017-06-09T18:41:44.435Z,60.60
2017-06-09T18:44:16.765Z,60.59
2017-06-09T18:46:49.088Z,60.05
2017-06-09T18:49:21.606Z,59.98
2017-06-09T18:51:54.063Z,60.23
2017-06-09T18:54:26.472Z,61.19
2017-06-09T18:56:59.219Z,60.65
2017-06-09T18:59:31.230Z,61.11
2017-06-09T19:02:03.723Z,61.23
2017-06-09T19:04:36.023Z,61.33
2017-06-09T19:07:08.670Z,60.83
2017-06-09T19:09:40.854Z,61.92
2017-06-09T19:12:13.287Z,62.03
2017-06-09T19:14:45.638Z,62.52
2017-06-09T19:17:18.410Z,63.61
2017-06-09T19:19:50.606Z,63.47
2017-06-09T19:22:24.109Z,63.61
2017-06-09T19:24:56.531Z,64.32
2017-06-09T19:27:29.010Z,64.26
2017-06-09T19:30:01.308Z,65.66
2017-06-09T19:32:34.729Z,65.86
2017-06-09T19:35:07.179Z,66.87
2017-06-09T19:37:39.968Z,67.18
2017-06-09T19:40:12.107Z,67.91
2017-06-09T19:42:44.539Z,68.79
2017-06-09T19:45:16.827Z,68.70
2017-06-09T19:47:49.300Z,69.40
2017-06-09T19:50:21.769Z,68.84
2017-06-09T19:52:54.135Z,68.94
2017-06-09T19:55:26.578Z,69.41
2017-06-09T19:57:59.382Z,70.71
2017-06-09T20:00:31.592Z,72.21
2017-06-09T20:03:03.658Z,72.36
2017-06-09T20:05:36.870Z,72.89
2017-06-09T20:08:09.330Z,72.31
2017-06-09T20:10:41.662Z,72.34
2017-06-09T20:13:14.156Z,74.88
2017-06-09T20:15:46.396Z,75.12
2017-06-09T20:18:18.811Z,75.05
2017-06-09T20:20:51.175Z,75.55
2017-06-09T20:23:23.499Z,75.69
2017-06-09T20:25:56.517Z,75.43
2017-06-09T20:28:29.297Z,75.45
2017-06-09T20:31:01.735Z,76.52
2017-06-09T20:33:34.255Z,77.01
2017-06-09T20:36:06.599Z,77.37
2017-06-09T20:38:39.228Z,77.03
2017-06-09T20:41:11.671Z,76.90
2017-06-09T20:43:44.183Z,77.19
2017-06-09T20:46:16.535Z,77.87
2017-06-09T20:48:48.922Z,77.97
2017-06-09T20:51:21.467Z,77.89
2017-06-09T20:53:53.807Z,77.91
2017-06-09T20:56:26.219Z,78.41
2017-06-09T20:58:58.635Z,78.98
2017-06-09T21:01:31.003Z,79.03
2017-06-09T21:04:03.347Z,79.28
2017-06-09T21:06:35.702Z,79.43
2017-06-09T21:09:08.044Z,79.76
2017-06-09T21:11:40.395Z,80.11
2017-06-09T21:14:13.012Z,80.02
2017-06-09T21:16:45.037Z,80.54
2017-06-09T21:19:17.519Z,79.59
2017-06-09T21:21:49.859Z,79.83
2017-06-09T21:24:22.175Z,79.88
2017-06-09T21:26:54.587Z,79.43
2017-06-09T21:29:27.067Z,78.28
2017-06-09T21:31:59.368Z,78.84
2017-06-09T21:34:31.762Z,79.11
2017-06-09T21:37:04.933Z,79.40
2017-06-09T21:39:37.636Z,79.73
2017-06-09T21:42:09.887Z,79.23
2017-06-09T21:44:42.052Z,79.52
2017-06-09T21:47:14.475Z,79.88
2017-06-09T21:49:46.894Z,80.29
2017-06-09T21:52:19.392Z,80.57
2017-06-09T21:54:51.939Z,80.58
2017-06-09T21:57:23.943Z,80.77
2017-06-09T21:59:56.295Z,81.09
2017-06-09T22:02:28.833Z,81.46
2017-06-09T22:05:01.069Z,81.57
2017-06-09T22:07:33.360Z,81.55
2017-06-09T22:10:05.625Z,81.29
2017-06-09T22:12:39.455Z,81.28
2017-06-09T22:15:11.531Z,82.17
2017-06-09T22:17:43.763Z,81.81
2017-06-09T22:20:16.146Z,82.50
2017-06-09T22:22:48.455Z,83.36
2017-06-09T22:25:20.915Z,83.54
2017-06-09T22:27:53.366Z,83.81
2017-06-09T22:30:25.902Z,83.40
2017-06-09T22:32:58.196Z,83.74
2017-06-09T22:35:30.528Z,84.19
2017-06-09T22:38:03.001Z,84.19
2017-06-09T22:40:35.449Z,84.21
2017-06-09T22:43:07.819Z,84.45
2017-06-09T22:45:40.219Z,84.34
2017-06-09T22:48:12.504Z,84.59
2017-06-09T22:50:45.854Z,84.59
2017-06-09T22:53:18.278Z,84.36
2017-06-09T22:55:50.618Z,84.41
2017-06-09T22:58:23.085Z,84.36
2017-06-09T23:00:55.587Z,84.26
2017-06-09T23:03:27.948Z,85.15
2017-06-09T23:06:00.336Z,84.66
2017-06-09T23:08:32.739Z,85.02
2017-06-09T23:11:05.305Z,85.02
2017-06-09T23:13:38.276Z,85.28
2017-06-09T23:16:10.986Z,85.54
2017-06-09T23:18:43.488Z,85.80
2017-06-09T23:21:16.150Z,85.12
2017-06-09T23:23:48.482Z,85.31
2017-06-09T23:26:21.200Z,86.06
2017-06-09T23:28:54.457Z,86.41
2017-06-09T23:31:32.519Z,85.95
2017-06-09T23:34:04.915Z,87.06
2017-06-09T23:36:37.371Z,87.45
2017-06-09T23:39:09.651Z,87.91
2017-06-09T23:41:42.547Z,88.12
2017-06-09T23:44:21.508Z,87.41
2017-06-09T23:46:54.142Z,87.96
2017-06-09T23:49:26.534Z,87.56
2017-06-09T23:51:58.820Z,88.16
2017-06-09T23:54:31.274Z,87.61
2017-06-09T23:57:03.627Z,87.75
2017-06-09T23:59:36.035Z,87.44
